Time;durP1;ratioP1;P1;durP2;ratioP2;P2;SDS_P1;SDS_P2;PMS_P1;PMS_P2;Temp;Humidity;BMP_temperature;BMP_pressure;BME280_temperature;BME280_humidity;BME280_pressure;Samples;Min_cycle;Max_cycle;Signal;HPM_P1;HPM_P2
2022/02/03 00:02:01;;;;;;;22.33;2.55;;;;;;;7.44;52.53;101582.72;5034515;27;99287;-75
2022/02/03 00:04:31;;;;;;;19.70;1.92;;;;;;;7.55;52.30;101589.59;5031834;27;98881;-75
2022/02/03 00:07:03;;;;;;;23.75;2.28;;;;;;;7.37;53.21;101592.41;5034593;28;97153;-75
2022/02/03 00:10:01;;;;;;;16.55;2.30;;;;;;;7.32;53.24;101588.97;5032323;27;97242;-75
2022/02/03 00:24:09;;;;;;;16.10;2.50;;;;;;;7.08;53.76;101604.94;5036723;27;97154;-75
2022/02/03 00:26:44;;;;;;;23.02;2.10;;;;;;;7.38;52.96;101609.06;5034948;28;99455;-74
2022/02/03 00:29:23;;;;;;;28.95;2.30;;;;;;;7.53;52.57;101609.81;5035507;28;97308;-75
2022/02/03 00:32:01;;;;;;;24.33;2.70;;;;;;;7.38;52.88;101615.19;5037031;27;96772;-73
2022/02/03 00:34:36;;;;;;;20.70;2.67;;;;;;;7.42;52.71;101626.56;5035896;27;99048;-75
2022/02/03 00:37:13;;;;;;;22.20;2.53;;;;;;;7.47;52.91;101632.66;5035835;28;99480;-75
2022/02/03 00:48:21;;;;;;;15.77;1.95;;;;;;;7.35;52.87;101632.78;5034578;27;97104;-75
2022/02/03 00:50:50;;;;;;;19.00;2.50;;;;;;;7.45;52.81;101631.81;5035214;27;96883;-76
2022/02/03 00:53:19;;;;;;;20.08;2.38;;;;;;;7.51;52.63;101627.34;5035302;27;96979;-74
2022/02/03 00:55:48;;;;;;;23.90;2.30;;;;;;;7.48;52.91;101616.84;5042366;28;99265;-73
2022/02/03 00:58:18;;;;;;;13.77;1.95;;;;;;;7.27;53.25;101624.94;5037825;27;99378;-74
2022/02/03 01:00:51;;;;;;;16.08;2.05;;;;;;;7.17;53.53;101620.63;5034024;27;96828;-74
2022/02/03 01:03:18;;;;;;;17.27;2.55;;;;;;;7.19;53.49;101625.00;5034084;27;96710;-75
2022/02/03 01:05:47;;;;;;;16.75;2.45;;;;;;;7.39;53.19;101627.47;5034436;28;99346;-73
2022/02/03 01:08:18;;;;;;;25.02;1.92;;;;;;;7.40;52.98;101623.97;5035707;27;98972;-75
2022/02/03 01:10:50;;;;;;;17.08;2.13;;;;;;;7.35;53.24;101638.03;5034826;27;96812;-75
2022/02/03 01:13:33;;;;;;;18.88;2.38;;;;;;;7.35;53.00;101631.00;5038666;27;96844;-76
2022/02/03 01:16:07;;;;;;;19.45;2.90;;;;;;;7.46;53.08;101625.66;5034251;27;101260;-74
2022/02/03 01:21:45;;;;;;;15.40;2.30;;;;;;;7.40;53.31;101629.22;5026842;27;96820;-76
2022/02/03 01:36:49;;;;;;;21.08;2.53;;;;;;;7.62;52.96;101629.88;4960231;28;96935;-75
2022/02/03 01:43:37;;;;;;;22.65;2.70;;;;;;;7.61;52.83;101633.44;5031835;27;96697;-76
2022/02/03 01:46:12;;;;;;;22.20;2.78;;;;;;;7.48;53.41;101631.78;5042413;22;99515;-78
2022/02/03 01:48:51;;;;;;;25.05;3.58;;;;;;;7.70;53.21;101635.06;5005888;28;99431;-78
2022/02/03 01:51:41;;;;;;;19.92;2.55;;;;;;;7.58;53.11;101629.06;5012119;28;99073;-78
2022/02/03 01:54:09;;;;;;;25.33;2.85;;;;;;;7.58;53.32;101626.41;5018611;28;96890;-78
2022/02/03 01:56:39;;;;;;;26.30;2.55;;;;;;;7.52;53.41;101617.72;5010454;28;96928;-78
2022/02/03 01:59:21;;;;;;;23.23;3.10;;;;;;;7.82;52.76;101616.53;5013773;28;99201;-79
2022/02/03 02:01:55;;;;;;;17.88;2.45;;;;;;;7.63;53.23;101615.84;5014194;28;98832;-78
2022/02/03 02:04:38;;;;;;;27.08;2.60;;;;;;;7.70;53.13;101611.41;5018528;28;96695;-79
2022/02/03 02:07:20;;;;;;;21.35;2.17;;;;;;;7.59;53.67;101614.13;5013251;28;96995;-78
2022/02/03 02:10:13;;;;;;;22.73;3.42;;;;;;;7.92;52.91;101607.66;5009742;28;98854;-77
2022/02/03 02:12:55;;;;;;;24.05;3.10;;;;;;;7.64;53.47;101603.56;5010680;28;99578;-77
2022/02/03 02:15:52;;;;;;;19.48;2.30;;;;;;;7.86;52.82;101595.44;5013449;28;96742;-77
2022/02/03 02:18:48;;;;;;;16.73;3.03;;;;;;;7.96;53.03;101604.09;5013919;28;98451;-77
2022/02/03 02:38:13;;;;;;;18.60;2.53;;;;;;;7.69;53.93;101586.84;5016333;28;96867;-76
2022/02/03 02:41:44;;;;;;;19.05;2.42;;;;;;;7.77;53.58;101586.78;5012205;28;97372;-76
2022/02/03 02:44:08;;;;;;;17.80;2.53;;;;;;;7.80;53.72;101576.22;5010715;28;99181;-77
2022/02/03 02:46:43;;;;;;;21.40;2.55;;;;;;;8.05;53.29;101574.19;5012046;28;101167;-76
2022/02/03 02:49:20;;;;;;;25.45;3.05;;;;;;;8.08;53.13;101558.34;5013586;28;96834;-76
2022/02/03 02:51:55;;;;;;;29.83;3.53;;;;;;;8.13;52.74;101554.78;5010488;28;96767;-76
2022/02/03 02:54:46;;;;;;;21.27;2.15;;;;;;;7.83;53.78;101556.00;5012822;28;98094;-75
2022/02/03 02:57:49;;;;;;;34.10;2.78;;;;;;;7.97;53.58;101564.63;5012972;28;98632;-77
2022/02/03 03:00:38;;;;;;;27.67;2.92;;;;;;;7.99;53.58;101556.72;5012817;28;96730;-76
2022/02/03 03:03:48;;;;;;;21.77;3.03;;;;;;;7.97;53.84;101551.44;5010332;28;96837;-76
2022/02/03 03:31:38;;;;;;;29.25;3.42;;;;;;;8.31;52.82;101538.78;5017474;28;97121;-78
2022/02/03 03:34:14;;;;;;;22.63;2.72;;;;;;;8.23;52.90;101532.69;5008583;28;96780;-77
2022/02/03 03:36:43;;;;;;;22.83;2.40;;;;;;;8.19;53.06;101528.38;5012345;28;98581;-78
2022/02/03 03:39:12;;;;;;;21.40;2.72;;;;;;;8.31;52.51;101532.63;5013413;28;99516;-77
2022/02/03 03:41:44;;;;;;;29.58;3.55;;;;;;;8.30;52.83;101534.38;5016631;28;97555;-78
2022/02/03 03:44:14;;;;;;;25.23;2.45;;;;;;;8.51;52.07;101527.94;5020755;28;96627;-78
2022/02/03 03:46:42;;;;;;;19.13;2.88;;;;;;;8.43;52.54;101521.91;5029680;28;98155;-77
2022/02/03 03:49:24;;;;;;;23.00;3.25;;;;;;;8.44;52.26;101528.94;5021060;28;98310;-76
2022/02/03 03:51:54;;;;;;;18.25;2.75;;;;;;;8.50;52.13;101535.88;5029400;28;98901;-77
2022/02/03 03:54:32;;;;;;;25.75;2.97;;;;;;;8.47;52.37;101530.66;5031836;28;96947;-77
2022/02/03 03:57:11;;;;;;;26.42;2.80;;;;;;;8.52;52.10;101523.56;5025397;28;96792;-76
2022/02/03 04:00:27;;;;;;;21.73;2.65;;;;;;;8.32;52.56;101529.09;5028875;28;99982;-79
2022/02/03 04:32:16;;;;;;;18.20;2.42;;;;;;;8.37;52.60;101509.72;5029717;28;96922;-76
2022/02/03 04:38:11;;;;;;;20.08;2.60;;;;;;;8.51;51.73;101508.63;4956777;28;97750;-77
2022/02/03 05:02:05;;;;;;;18.02;2.60;;;;;;;7.57;53.90;101480.00;5015760;28;97420;-76
2022/02/03 05:04:50;;;;;;;25.80;3.50;;;;;;;7.91;53.43;101479.59;5013150;28;98501;-76
2022/02/03 05:07:57;;;;;;;28.63;3.47;;;;;;;7.83;53.90;101481.44;5015217;28;97627;-77
2022/02/03 05:10:59;;;;;;;20.05;2.95;;;;;;;8.02;53.45;101477.69;5015041;28;99346;-76
2022/02/03 05:13:44;;;;;;;15.02;2.83;;;;;;;7.85;53.69;101484.94;5014592;28;99190;-76
2022/02/03 05:16:53;;;;;;;22.23;2.28;;;;;;;7.97;53.49;101484.78;5014657;28;96906;-75
2022/02/03 05:19:53;;;;;;;15.38;2.45;;;;;;;8.05;53.22;101482.94;5010430;28;96768;-76
2022/02/03 05:25:50;;;;;;;18.60;2.65;;;;;;;8.08;53.14;101488.13;5007852;28;97089;-76
2022/02/03 05:35:17;;;;;;;31.00;3.80;;;;;;;8.05;52.68;101488.19;4934206;28;97853;-76
2022/02/03 05:44:14;;;;;;;15.77;3.20;;;;;;;8.02;51.98;101486.47;5016119;28;96907;-76
2022/02/03 05:47:02;;;;;;;18.38;2.80;;;;;;;8.02;52.17;101480.31;5011909;28;98137;-76
2022/02/03 05:55:24;;;;;;;27.58;3.03;;;;;;;7.68;52.60;101481.66;5013713;28;96745;-78
2022/02/03 06:06:31;;;;;;;22.60;2.40;;;;;;;7.70;52.87;101462.31;4986410;28;96772;-80
2022/02/03 06:09:06;;;;;;;23.13;2.77;;;;;;;7.90;52.45;101468.19;5032034;28;99366;-81
2022/02/03 06:14:21;;;;;;;18.40;3.67;;;;;;;7.67;53.02;101458.88;5017928;28;96721;-81
2022/02/03 06:17:03;;;;;;;25.77;2.33;;;;;;;7.80;52.63;101455.19;5014464;28;97746;-78
2022/02/03 06:22:42;;;;;;;24.02;3.20;;;;;;;7.91;52.18;101454.16;4936639;28;97987;-78
2022/02/03 06:27:53;;;;;;;21.35;3.72;;;;;;;7.89;52.35;101444.53;4982986;28;98005;-78
2022/02/03 06:30:22;;;;;;;30.77;3.00;;;;;;;8.04;52.03;101439.06;5013833;28;98845;-78
2022/02/03 06:32:50;;;;;;;14.35;2.92;;;;;;;8.22;51.41;101443.19;5014612;28;98927;-78
2022/02/03 06:35:18;;;;;;;21.30;2.30;;;;;;;8.18;51.23;101430.97;5016473;28;96859;-79
2022/02/03 06:37:45;;;;;;;26.20;3.00;;;;;;;8.23;51.02;101437.91;5015925;28;96775;-79
2022/02/03 06:40:12;;;;;;;14.40;2.15;;;;;;;7.98;51.59;101434.78;5011737;28;97574;-77
2022/02/03 06:42:38;;;;;;;18.73;2.95;;;;;;;7.87;51.79;101436.69;5017904;28;99060;-78
2022/02/03 06:45:12;;;;;;;22.13;2.67;;;;;;;7.49;52.91;101431.00;5013509;28;99445;-77
2022/02/03 06:47:49;;;;;;;18.20;2.53;;;;;;;7.77;52.48;101442.06;5005052;28;97311;-78
2022/02/03 06:50:21;;;;;;;15.73;3.58;;;;;;;8.05;51.64;101438.19;5010081;28;99381;-77
2022/02/03 06:52:53;;;;;;;18.58;2.72;;;;;;;8.03;52.04;101434.69;5011974;28;101383;-77
2022/02/03 06:55:24;;;;;;;18.48;2.95;;;;;;;8.07;51.44;101432.91;5012081;28;97942;-78
2022/02/03 06:57:56;;;;;;;18.83;4.05;;;;;;;7.68;52.63;101431.69;5018572;28;97951;-78
2022/02/03 07:00:26;;;;;;;25.75;3.58;;;;;;;7.91;52.20;101429.59;5010036;28;99446;-77
2022/02/03 07:02:55;;;;;;;19.83;3.22;;;;;;;8.00;51.75;101421.59;5013984;28;99043;-78
2022/02/03 07:05:23;;;;;;;20.13;3.28;;;;;;;7.97;52.16;101424.25;5016304;28;97091;-77
2022/02/03 07:07:50;;;;;;;21.50;3.65;;;;;;;8.05;51.71;101414.50;5015160;28;96719;-77
2022/02/03 07:10:16;;;;;;;27.52;4.50;;;;;;;8.17;51.61;101416.94;5015379;28;99180;-77
2022/02/03 07:12:43;;;;;;;21.13;3.95;;;;;;;7.75;52.60;101410.50;5012530;28;99522;-78
2022/02/03 07:15:11;;;;;;;23.00;4.60;;;;;;;8.14;51.73;101409.06;5010426;28;96776;-76
2022/02/03 07:17:38;;;;;;;22.30;4.32;;;;;;;8.37;51.06;101406.13;5012729;28;96817;-76
2022/02/03 07:20:07;;;;;;;30.00;5.07;;;;;;;8.36;51.08;101409.66;5015280;28;99314;-76
2022/02/03 07:22:35;;;;;;;27.23;4.57;;;;;;;8.01;52.15;101416.28;5014983;28;98892;-77
2022/02/03 07:25:02;;;;;;;23.35;4.90;;;;;;;8.18;51.87;101418.69;5023450;28;97096;-76
2022/02/03 07:27:29;;;;;;;22.98;4.25;;;;;;;7.91;52.43;101421.72;5012971;28;96884;-77
2022/02/03 07:29:55;;;;;;;28.13;4.80;;;;;;;7.69;53.10;101415.84;5010275;28;99499;-77
2022/02/03 07:32:23;;;;;;;31.05;4.88;;;;;;;8.02;52.05;101420.66;5010293;28;99600;-77
2022/02/03 07:34:54;;;;;;;24.95;4.53;;;;;;;8.19;52.01;101422.19;5012433;28;98389;-78
2022/02/03 07:37:22;;;;;;;26.67;5.35;;;;;;;7.72;52.28;101418.47;5013667;28;98259;-78
2022/02/03 07:39:50;;;;;;;20.23;4.40;;;;;;;7.78;53.31;101406.97;5016172;28;101623;-77
2022/02/03 07:42:16;;;;;;;23.30;5.13;;;;;;;7.80;53.49;101405.22;5020475;28;99074;-77
2022/02/03 07:44:42;;;;;;;24.23;4.78;;;;;;;8.09;52.71;101404.78;5014030;28;98722;-78
2022/02/03 07:47:09;;;;;;;15.05;4.22;;;;;;;8.24;52.30;101394.03;5027593;22;97186;-76
2022/02/03 07:49:35;;;;;;;23.98;4.53;;;;;;;7.96;52.65;101397.06;5008459;28;99048;-77
2022/02/03 07:52:02;;;;;;;31.35;4.85;;;;;;;8.20;52.41;101390.59;5008768;28;99350;-77
2022/02/03 07:54:29;;;;;;;20.25;4.40;;;;;;;8.53;51.63;101394.47;5014049;28;96731;-77
2022/02/03 07:56:56;;;;;;;15.93;4.50;;;;;;;8.59;51.44;101396.13;5015265;28;98774;-77
2022/02/03 07:59:23;;;;;;;25.35;4.63;;;;;;;8.27;52.23;101392.19;5014934;28;99564;-77
2022/02/03 08:01:49;;;;;;;22.40;4.10;;;;;;;8.38;51.90;101403.47;5016018;28;98896;-77
2022/02/03 08:04:19;;;;;;;22.20;5.40;;;;;;;8.31;52.16;101396.56;5019090;28;96745;-78
2022/02/03 08:06:47;;;;;;;26.15;4.45;;;;;;;8.10;52.64;101388.97;5015403;28;99091;-78
2022/02/03 08:09:21;;;;;;;25.23;4.28;;;;;;;8.33;52.26;101386.91;5017012;28;102343;-78
2022/02/03 08:11:49;;;;;;;23.20;4.10;;;;;;;8.45;52.23;101385.81;5014834;28;98089;-77
2022/02/03 08:14:21;;;;;;;19.40;4.10;;;;;;;8.67;51.51;101383.66;5016762;28;96769;-77
2022/02/03 08:16:52;;;;;;;20.23;3.97;;;;;;;9.15;50.54;101381.91;5013775;28;96916;-78
2022/02/03 08:19:23;;;;;;;16.63;3.58;;;;;;;9.03;50.72;101369.81;5010127;28;98473;-78
2022/02/03 08:21:58;;;;;;;22.42;4.32;;;;;;;9.16;50.45;101371.31;5016459;28;99340;-77
2022/02/03 08:24:27;;;;;;;17.23;4.22;;;;;;;9.01;51.03;101379.53;5018679;28;96767;-77
2022/02/03 08:27:04;;;;;;;22.00;3.47;;;;;;;9.33;50.25;101380.66;5027937;28;96885;-78
2022/02/03 08:30:08;;;;;;;21.83;4.50;;;;;;;9.29;50.06;101379.00;5017113;28;97206;-78
2022/02/03 08:32:28;;;;;;;20.30;4.25;;;;;;;9.43;50.06;101367.25;5015152;28;98562;-78
2022/02/03 08:35:09;;;;;;;15.63;3.70;;;;;;;9.34;50.12;101363.94;5022325;28;96802;-77
2022/02/03 08:37:45;;;;;;;16.95;3.95;;;;;;;9.39;50.00;101365.56;5022036;28;96979;-77
2022/02/03 08:40:15;;;;;;;25.58;4.40;;;;;;;9.67;49.45;101367.63;5016119;28;101633;-77
2022/02/03 08:42:42;;;;;;;18.95;4.38;;;;;;;9.70;49.55;101360.53;5016832;28;98777;-76
2022/02/03 08:45:10;;;;;;;22.10;4.30;;;;;;;9.58;49.78;101358.16;5014997;28;96860;-77
2022/02/03 08:47:37;;;;;;;22.08;4.57;;;;;;;9.29;50.55;101353.50;5015317;28;96997;-77
2022/02/03 08:50:05;;;;;;;17.65;4.35;;;;;;;9.35;50.55;101353.34;5016344;28;99028;-77
2022/02/03 08:52:41;;;;;;;21.27;5.15;;;;;;;9.35;50.65;101347.22;5015060;28;98775;-78
2022/02/03 08:55:21;;;;;;;19.38;5.38;;;;;;;9.13;51.32;101342.38;5030199;28;96862;-76
2022/02/03 08:58:07;;;;;;;15.52;3.95;;;;;;;8.88;51.91;101341.13;5039054;28;97144;-77
2022/02/03 09:00:51;;;;;;;22.75;4.22;;;;;;;9.50;50.51;101344.25;5038932;28;99508;-77
2022/02/03 09:28:33;;;;;;;18.35;5.25;;;;;;;9.98;50.77;101318.50;5015027;28;96981;-76
2022/02/03 09:57:31;;;;;;;25.83;4.43;;;;;;;10.02;52.17;101298.19;4944891;28;98286;-77
2022/02/03 10:00:27;;;;;;;25.33;5.97;;;;;;;10.36;51.63;101304.41;5027430;27;96879;-79
2022/02/03 10:02:59;;;;;;;20.73;4.50;;;;;;;10.26;52.50;101297.59;5050330;27;96740;-79
2022/02/03 10:05:32;;;;;;;25.17;5.13;;;;;;;10.46;51.91;101300.59;5045464;27;99174;-79
2022/02/03 10:07:59;;;;;;;23.50;4.57;;;;;;;10.47;52.21;101302.34;5046625;27;100814;-78
2022/02/03 10:10:29;;;;;;;58.30;6.80;;;;;;;10.51;51.90;101306.63;5043997;27;98536;-78
2022/02/03 10:12:56;;;;;;;16.52;4.90;;;;;;;10.56;52.16;101291.53;5050853;27;98524;-79
2022/02/03 10:15:23;;;;;;;20.15;5.00;;;;;;;10.66;52.23;101295.66;5049423;27;99010;-79
2022/02/03 10:17:51;;;;;;;20.67;4.47;;;;;;;10.71;51.94;101291.09;5045959;27;98743;-79
2022/02/03 10:20:22;;;;;;;20.35;4.68;;;;;;;10.66;52.33;101287.72;5050921;27;96797;-78
2022/02/03 10:22:52;;;;;;;20.70;4.68;;;;;;;10.87;52.38;101274.84;5049374;27;96826;-78
2022/02/03 10:25:24;;;;;;;17.95;4.57;;;;;;;11.03;51.96;101271.69;5053359;27;99675;-77
2022/02/03 10:28:02;;;;;;;18.77;4.50;;;;;;;10.95;52.35;101268.44;5062030;27;98854;-79
2022/02/03 10:30:36;;;;;;;15.55;4.22;;;;;;;10.83;53.44;101255.53;5072416;27;96799;-79
2022/02/03 10:33:04;;;;;;;22.15;5.57;;;;;;;10.94;53.19;101250.81;5060326;27;96908;-78
2022/02/03 10:35:36;;;;;;;22.10;5.70;;;;;;;10.97;53.66;101250.72;5051408;27;99506;-78
2022/02/03 10:38:39;;;;;;;18.98;5.53;;;;;;;10.95;54.43;101243.75;5047160;27;98890;-79
2022/02/03 10:44:15;;;;;;;25.80;6.07;;;;;;;10.76;55.68;101231.03;5047182;27;96880;-76
2022/02/03 10:46:58;;;;;;;16.55;6.10;;;;;;;10.65;56.15;101230.50;5045212;27;98831;-75
2022/02/03 10:50:02;;;;;;;22.05;6.10;;;;;;;10.68;56.54;101224.25;5034391;28;98813;-76
2022/02/03 10:52:53;;;;;;;17.75;6.22;;;;;;;10.62;56.80;101225.31;5034628;28;97063;-75
2022/02/03 10:58:23;;;;;;;20.00;6.57;;;;;;;11.00;56.62;101229.47;5024755;28;97568;-75
2022/02/03 11:01:14;;;;;;;20.13;6.47;;;;;;;10.75;57.38;101213.47;5035043;28;99122;-76
2022/02/03 11:06:28;;;;;;;21.23;6.95;;;;;;;10.70;57.91;101218.00;5012686;27;97033;-77
2022/02/03 11:09:05;;;;;;;18.17;6.63;;;;;;;10.91;57.77;101213.00;5037977;27;100629;-76
2022/02/03 11:11:36;;;;;;;22.60;6.57;;;;;;;10.94;57.50;101219.09;5034677;27;98903;-78
2022/02/03 11:14:03;;;;;;;19.17;6.38;;;;;;;10.73;58.76;101214.41;5037034;28;96876;-76
2022/02/03 11:16:33;;;;;;;16.48;6.90;;;;;;;10.68;58.65;101216.34;5035561;27;97268;-79
2022/02/03 11:19:04;;;;;;;21.63;7.38;;;;;;;10.75;58.53;101212.59;5036026;27;98049;-79
2022/02/03 11:21:32;;;;;;;23.08;7.47;;;;;;;10.77;58.62;101201.06;5033515;28;99139;-79
2022/02/03 11:24:04;;;;;;;20.17;7.55;;;;;;;10.79;58.83;101204.53;5039078;28;96889;-77
2022/02/03 11:26:40;;;;;;;18.10;7.05;;;;;;;11.04;58.14;101195.88;5037763;27;97117;-79
2022/02/03 11:29:44;;;;;;;24.38;8.20;;;;;;;10.87;58.81;101196.38;5037322;28;97763;-78
2022/02/03 11:32:30;;;;;;;18.23;7.93;;;;;;;10.75;59.22;101194.97;5035710;28;99256;-76
2022/02/03 12:11:51;;;;;;;13.57;8.13;;;;;;;11.06;59.97;101144.66;5037042;27;96841;-77
2022/02/03 12:14:51;;;;;;;15.82;8.23;;;;;;;10.98;60.77;101145.81;5042976;28;99317;-77
2022/02/03 12:17:40;;;;;;;11.73;8.07;;;;;;;11.02;60.47;101150.13;5045125;28;99604;-79
2022/02/03 12:20:21;;;;;;;16.23;8.73;;;;;;;10.68;61.56;101137.91;5039352;28;96730;-77
2022/02/03 12:23:09;;;;;;;13.68;8.98;;;;;;;10.89;60.93;101135.53;5035279;28;96752;-79
2022/02/03 12:25:50;;;;;;;16.50;8.68;;;;;;;10.92;60.72;101130.13;5033185;28;102036;-79
2022/02/03 12:28:25;;;;;;;12.95;7.63;;;;;;;10.95;60.89;101120.34;5033186;28;97626;-78
2022/02/03 12:31:24;;;;;;;18.65;8.50;;;;;;;11.14;60.36;101124.16;5032142;27;96730;-79
2022/02/03 12:39:33;;;;;;;12.73;7.50;;;;;;;10.75;61.93;101117.44;5041984;28;96857;-77
2022/02/03 12:42:05;;;;;;;10.18;7.10;;;;;;;10.92;61.26;101127.50;5047598;27;96804;-78
2022/02/03 12:44:35;;;;;;;11.00;7.38;;;;;;;11.13;60.37;101121.53;5042530;28;96715;-76
2022/02/03 12:47:05;;;;;;;9.63;7.13;;;;;;;11.12;60.75;101115.38;5039356;27;99532;-78
2022/02/03 12:49:32;;;;;;;13.75;7.57;;;;;;;11.10;60.73;101111.03;5038492;27;99139;-77
2022/02/03 12:51:58;;;;;;;12.65;7.78;;;;;;;11.00;61.04;101099.91;5037546;27;96888;-78
2022/02/03 12:54:26;;;;;;;16.05;8.38;;;;;;;10.90;61.63;101097.59;5045356;27;96917;-77
2022/02/03 12:57:00;;;;;;;18.77;10.32;;;;;;;11.11;61.55;101094.25;5045799;27;98793;-76
2022/02/03 12:59:28;;;;;;;13.07;8.30;;;;;;;11.08;60.88;101086.44;5038632;28;98868;-77
2022/02/03 13:01:54;;;;;;;16.50;8.45;;;;;;;11.20;61.13;101088.69;5040368;28;96811;-78
2022/02/03 13:04:22;;;;;;;14.75;8.70;;;;;;;11.16;61.07;101084.41;5039829;27;96875;-78
2022/02/03 13:07:00;;;;;;;13.30;8.07;;;;;;;11.11;61.63;101089.84;5042916;27;99219;-78
2022/02/03 13:09:36;;;;;;;15.90;7.68;;;;;;;11.24;61.39;101089.44;5039838;27;100027;-76
2022/02/03 13:12:14;;;;;;;14.07;7.70;;;;;;;11.43;60.92;101064.97;5032532;28;96809;-77
2022/02/03 13:14:48;;;;;;;13.38;7.78;;;;;;;11.12;61.38;101064.25;5038180;27;96831;-77
2022/02/03 13:17:21;;;;;;;12.50;8.13;;;;;;;11.02;61.68;101070.78;5038218;27;99257;-77
2022/02/03 13:19:54;;;;;;;14.82;8.30;;;;;;;11.18;61.48;101064.94;5035726;28;98939;-76
2022/02/03 13:22:31;;;;;;;11.95;7.72;;;;;;;11.41;61.08;101055.38;5035803;28;96856;-78
2022/02/03 13:25:07;;;;;;;16.40;7.50;;;;;;;11.11;62.09;101058.09;5035399;28;97888;-76
2022/02/03 13:27:40;;;;;;;12.65;8.13;;;;;;;11.15;62.19;101058.88;5033797;27;98902;-77
2022/02/03 13:30:13;;;;;;;12.55;8.52;;;;;;;10.99;62.44;101049.72;5034262;28;99083;-78
2022/02/03 13:32:43;;;;;;;10.75;7.72;;;;;;;11.26;61.86;101051.47;5036298;28;96874;-78
2022/02/03 13:35:22;;;;;;;15.63;8.13;;;;;;;11.12;62.21;101033.41;5034728;28;96817;-79
2022/02/03 13:37:50;;;;;;;13.88;8.57;;;;;;;11.18;62.09;101033.19;5029088;27;98944;-78
2022/02/03 13:40:20;;;;;;;12.32;8.25;;;;;;;11.35;61.59;101031.78;5034325;27;99251;-79
2022/02/03 13:42:48;;;;;;;12.52;8.05;;;;;;;11.48;61.26;101033.09;5033825;28;97321;-78
2022/02/03 13:45:18;;;;;;;13.15;8.00;;;;;;;11.42;61.65;101033.28;5035615;27;97029;-79
2022/02/03 13:47:46;;;;;;;13.00;8.00;;;;;;;11.57;61.21;101033.59;5084095;22;99390;-76
2022/02/03 13:50:21;;;;;;;18.05;8.30;;;;;;;11.32;61.61;101032.72;5088707;27;98925;-76
2022/02/03 13:52:53;;;;;;;13.48;8.63;;;;;;;11.30;62.04;101031.91;5091732;27;96752;-75
2022/02/03 14:15:50;;;;;;;13.83;8.50;;;;;;;11.15;63.34;101004.22;5068369;27;98475;-77
2022/02/03 14:18:24;;;;;;;14.32;8.23;;;;;;;11.39;62.87;100997.22;5050699;27;97387;-77
2022/02/03 14:21:01;;;;;;;13.18;8.32;;;;;;;11.56;62.37;101005.41;5042325;27;101244;-76
2022/02/03 14:28:55;;;;;;;13.82;7.88;;;;;;;11.24;63.69;100991.56;5048913;27;97065;-75
2022/02/03 14:31:23;;;;;;;11.70;7.35;;;;;;;11.44;63.27;100992.63;5051695;27;99205;-76
2022/02/03 14:33:50;;;;;;;11.85;7.85;;;;;;;11.66;61.92;100982.13;5051261;27;101371;-75
2022/02/03 14:36:25;;;;;;;12.02;7.47;;;;;;;11.70;61.88;100982.88;5050582;27;96832;-76
2022/02/03 14:38:57;;;;;;;13.20;7.95;;;;;;;11.69;62.19;100982.00;5051509;27;97193;-75
2022/02/03 14:41:29;;;;;;;13.02;7.97;;;;;;;11.72;62.11;100976.63;5049540;27;99806;-76
2022/02/03 14:43:57;;;;;;;12.50;7.40;;;;;;;11.94;61.47;100971.44;5050017;27;99381;-76
2022/02/03 14:46:26;;;;;;;12.13;7.45;;;;;;;11.76;62.01;100972.97;5051846;27;97220;-76
2022/02/03 14:48:53;;;;;;;10.65;7.35;;;;;;;11.50;62.86;100973.00;5052353;27;96944;-77
2022/02/03 14:51:24;;;;;;;14.82;8.02;;;;;;;11.35;63.81;100977.06;5047261;27;98960;-76
2022/02/03 14:54:08;;;;;;;13.45;7.57;;;;;;;11.10;64.27;100976.16;5049705;27;98358;-76
2022/02/03 14:59:19;;;;;;;12.75;7.50;;;;;;;11.48;63.56;100966.91;5048751;27;96791;-75
2022/02/03 15:01:46;;;;;;;12.75;7.70;;;;;;;11.38;63.35;100965.50;5050121;27;99209;-77
2022/02/03 15:04:20;;;;;;;11.48;7.53;;;;;;;11.65;62.87;100968.94;5051996;27;99228;-76
2022/02/03 15:06:56;;;;;;;11.45;7.45;;;;;;;11.68;62.96;100963.56;5050489;27;97031;-74
2022/02/03 15:09:46;;;;;;;16.42;7.72;;;;;;;11.69;62.82;100965.25;5048737;27;97172;-75
2022/02/03 15:12:22;;;;;;;12.93;8.10;;;;;;;11.77;62.59;100964.09;5045690;27;98614;-75
2022/02/03 15:14:48;;;;;;;15.52;9.45;;;;;;;11.67;63.02;100959.19;5046076;27;99110;-74
2022/02/03 15:17:16;;;;;;;13.13;8.23;;;;;;;11.77;62.95;100960.59;5050805;27;96938;-75
2022/02/03 15:19:43;;;;;;;10.35;7.45;;;;;;;11.41;63.73;100958.34;5053935;27;97224;-76
2022/02/03 15:22:09;;;;;;;17.63;8.38;;;;;;;11.65;63.15;100963.66;5050790;27;98052;-75
2022/02/03 15:24:35;;;;;;;12.43;7.75;;;;;;;11.70;62.96;100957.28;5052323;27;99215;-74
2022/02/03 15:27:02;;;;;;;14.25;7.72;;;;;;;11.59;63.19;100955.03;5037637;27;96785;-74
2022/02/03 15:29:29;;;;;;;12.50;8.23;;;;;;;11.75;63.23;100951.88;5038122;27;97125;-75
2022/02/03 15:31:56;;;;;;;13.68;8.25;;;;;;;11.71;63.20;100945.75;5033846;28;99846;-76
2022/02/03 15:34:24;;;;;;;14.80;8.07;;;;;;;11.59;63.33;100939.16;5035079;27;99163;-76
2022/02/03 15:36:53;;;;;;;15.45;8.80;;;;;;;11.64;63.38;100941.63;5037365;27;96791;-77
2022/02/03 15:39:23;;;;;;;16.35;8.32;;;;;;;11.81;63.15;100949.84;5036765;27;96802;-76
2022/02/03 15:41:52;;;;;;;14.63;8.73;;;;;;;11.67;63.09;100945.94;5037358;28;98824;-76
2022/02/03 15:44:19;;;;;;;13.02;8.70;;;;;;;11.74;63.09;100942.19;5040674;27;97802;-79
2022/02/03 15:46:58;;;;;;;11.25;8.30;;;;;;;11.75;63.29;100954.50;5040466;27;96946;-79
2022/02/03 15:49:58;;;;;;;15.20;9.30;;;;;;;11.46;64.08;100948.44;5039417;28;98223;-79
2022/02/03 15:58:55;;;;;;;15.32;9.38;;;;;;;11.32;65.05;100937.50;5036610;27;98934;-78
2022/02/03 16:03:49;;;;;;;13.90;8.43;;;;;;;11.64;63.83;100935.44;5034052;27;98485;-73
2022/02/03 16:17:11;;;;;;;12.85;8.95;;;;;;;11.82;63.01;100927.72;5032086;28;98505;-75
2022/02/03 16:19:47;;;;;;;17.00;9.20;;;;;;;11.98;62.65;100935.97;5036888;28;96861;-75
2022/02/03 16:22:23;;;;;;;17.20;8.65;;;;;;;11.73;63.57;100932.47;5039041;28;96935;-76
2022/02/03 16:24:54;;;;;;;14.00;9.10;;;;;;;11.89;63.05;100933.66;5037785;28;99398;-75
2022/02/03 16:41:20;;;;;;;15.65;9.50;;;;;;;11.55;64.56;100932.22;5032111;28;96805;-73
2022/02/03 16:52:31;;;;;;;14.15;9.05;;;;;;;11.73;63.81;100929.84;5033951;28;97789;-77
2022/02/03 16:55:01;;;;;;;16.52;9.75;;;;;;;11.69;64.11;100922.91;5036540;28;97498;-76
2022/02/03 16:57:28;;;;;;;15.98;10.45;;;;;;;11.86;63.33;100912.59;5036955;27;101612;-78
2022/02/03 16:59:58;;;;;;;20.20;10.38;;;;;;;11.82;63.31;100913.63;5035575;28;99744;-76
2022/02/03 17:02:25;;;;;;;14.27;9.85;;;;;;;11.95;62.88;100912.22;5037607;28;97327;-76
2022/02/03 17:04:52;;;;;;;15.98;10.60;;;;;;;11.99;63.08;100908.56;5038284;27;97364;-77
2022/02/03 17:07:18;;;;;;;17.13;10.45;;;;;;;12.00;62.77;100910.28;5036657;27;97850;-78
2022/02/03 17:09:45;;;;;;;19.52;10.77;;;;;;;12.08;62.55;100902.88;5035213;27;98101;-79
2022/02/03 17:12:13;;;;;;;16.77;11.05;;;;;;;11.88;63.00;100900.16;5033699;27;97259;-77
2022/02/03 17:14:39;;;;;;;16.17;11.38;;;;;;;12.03;62.77;100893.41;5030607;27;97548;-77
2022/02/03 17:17:06;;;;;;;21.65;11.10;;;;;;;12.05;62.73;100897.72;5030664;27;99627;-77
2022/02/03 17:19:32;;;;;;;16.15;11.10;;;;;;;11.94;62.93;100903.44;5029939;28;98067;-77
2022/02/03 17:21:59;;;;;;;18.25;11.77;;;;;;;12.01;62.79;100898.78;5034316;27;96902;-76
2022/02/03 17:24:25;;;;;;;17.88;11.07;;;;;;;12.08;62.85;100894.94;5031272;27;97621;-77
2022/02/03 17:26:58;;;;;;;19.38;11.13;;;;;;;12.08;62.59;100886.16;5032206;27;99022;-77
2022/02/03 17:29:36;;;;;;;20.75;11.43;;;;;;;11.94;62.89;100892.00;5029843;28;99067;-77
2022/02/03 17:32:10;;;;;;;18.38;11.48;;;;;;;11.98;62.75;100888.28;5029747;28;96948;-76
2022/02/03 18:05:58;;;;;;;21.15;12.70;;;;;;;12.08;62.77;100894.09;5030647;27;96824;-78
2022/02/03 18:10:50;;;;;;;20.80;12.77;;;;;;;12.10;62.75;100887.81;5037097;28;97627;-79
2022/02/03 18:35:23;;;;;;;24.80;13.38;;;;;;;11.95;63.17;100864.56;5040014;27;97232;-79
2022/02/03 18:46:46;;;;;;;27.90;14.20;;;;;;;11.93;63.35;100858.47;5043369;27;97080;-79